createdAt,value
2022-09-12T00:00:03.387Z,93.26
2022-09-12T00:01:03.395Z,93.46
2022-09-12T00:02:03.458Z,93.46
2022-09-12T00:03:03.371Z,93.57
2022-09-12T00:04:03.370Z,93.57
2022-09-12T00:05:03.339Z,93.57
2022-09-12T00:06:03.351Z,93.57
2022-09-12T00:07:03.321Z,93.46
2022-09-12T00:08:03.310Z,93.57
2022-09-12T00:09:03.313Z,93.67
2022-09-12T00:10:03.273Z,93.71
2022-09-12T00:11:03.271Z,93.81
2022-09-12T00:12:03.262Z,93.81
2022-09-12T00:13:03.283Z,93.91
2022-09-12T00:14:03.962Z,93.91
2022-09-12T00:15:03.225Z,93.91
2022-09-12T00:16:03.213Z,93.91
2022-09-12T00:17:03.220Z,93.91
2022-09-12T00:18:03.203Z,93.81
2022-09-12T00:19:03.764Z,94.12
2022-09-12T00:20:03.196Z,94.32
2022-09-12T00:21:03.194Z,94.42
2022-09-12T00:22:03.143Z,94.53
2022-09-12T00:23:03.154Z,94.62
2022-09-12T00:24:03.114Z,94.62
2022-09-12T00:25:03.145Z,94.62
2022-09-12T00:26:03.095Z,94.57
2022-09-12T00:27:03.085Z,94.57
2022-09-12T00:28:03.088Z,94.46
2022-09-12T00:29:03.066Z,94.57
2022-09-12T00:30:03.109Z,94.67
2022-09-12T00:31:03.046Z,94.67
2022-09-12T00:32:03.036Z,94.77
2022-09-12T00:33:03.095Z,94.98
2022-09-12T00:34:03.017Z,95.18
2022-09-12T00:35:03.020Z,95.18
2022-09-12T00:36:02.997Z,95.07
2022-09-12T00:37:03.027Z,94.98
2022-09-12T00:38:02.987Z,94.87
2022-09-12T00:39:02.967Z,94.67
2022-09-12T00:40:02.997Z,94.57
2022-09-12T00:41:02.948Z,94.37
2022-09-12T00:42:02.930Z,94.37
2022-09-12T00:43:02.931Z,94.37
2022-09-12T00:44:02.904Z,94.26
2022-09-12T00:45:02.932Z,94.37
2022-09-12T00:46:02.918Z,94.37
2022-09-12T00:47:02.886Z,94.46
2022-09-12T00:48:02.871Z,94.46
2022-09-12T00:49:02.860Z,94.46
2022-09-12T00:50:02.851Z,94.51
2022-09-12T00:51:02.861Z,94.46
2022-09-12T00:52:02.880Z,94.51
2022-09-12T00:53:02.810Z,94.41
2022-09-12T00:54:02.790Z,94.61
2022-09-12T00:55:02.842Z,94.71
2022-09-12T00:56:02.797Z,94.82
2022-09-12T00:57:02.790Z,95.02
2022-09-12T00:58:02.760Z,95.12
2022-09-12T00:59:02.773Z,95.22
2022-09-12T01:00:02.829Z,95.32
2022-09-12T01:01:02.816Z,95.32
2022-09-12T01:02:03.002Z,95.32
2022-09-12T01:03:02.693Z,95.42
2022-09-12T01:04:02.682Z,95.53
2022-09-12T01:05:02.672Z,95.63
2022-09-12T01:06:02.681Z,95.73
2022-09-12T01:07:02.652Z,95.83
2022-09-12T01:08:02.683Z,95.94
2022-09-12T01:09:02.651Z,96.03
2022-09-12T01:10:02.641Z,96.03
2022-09-12T01:11:02.621Z,96.14
2022-09-12T01:12:02.594Z,96.14
2022-09-12T01:13:02.656Z,96.14
2022-09-12T01:14:02.574Z,96.14
2022-09-12T01:15:02.565Z,96.14
2022-09-12T01:16:02.595Z,96.14
2022-09-12T01:17:02.581Z,96.03
2022-09-12T01:18:02.715Z,95.83
2022-09-12T01:19:02.545Z,95.63
2022-09-12T01:20:02.519Z,95.42
2022-09-12T01:21:02.507Z,95.42
2022-09-12T01:22:02.510Z,95.42
2022-09-12T01:23:02.487Z,95.53
2022-09-12T01:24:02.476Z,95.53
2022-09-12T01:25:02.457Z,95.42
2022-09-12T01:26:02.450Z,95.42
2022-09-12T01:27:02.457Z,95.47
2022-09-12T01:28:02.439Z,95.37
2022-09-12T01:29:02.437Z,95.37
2022-09-12T01:30:02.428Z,95.37
2022-09-12T01:31:02.402Z,95.26
2022-09-12T01:32:02.416Z,95.37
2022-09-12T01:33:02.399Z,95.26
2022-09-12T01:34:02.358Z,95.37
2022-09-12T01:35:02.378Z,95.37
2022-09-12T01:36:02.359Z,95.37
2022-09-12T01:37:02.368Z,95.26
2022-09-12T01:38:02.309Z,95.26
2022-09-12T01:39:02.315Z,95.17
2022-09-12T01:40:02.373Z,95.26
2022-09-12T01:41:02.320Z,95.17
2022-09-12T01:42:02.280Z,95.17
2022-09-12T01:43:02.270Z,95.17
2022-09-12T01:44:02.248Z,95.37
2022-09-12T01:45:02.241Z,95.47
2022-09-12T01:46:02.324Z,95.57
2022-09-12T01:47:02.210Z,95.57
2022-09-12T01:48:02.232Z,95.57
2022-09-12T01:49:02.192Z,95.82
2022-09-12T01:50:02.181Z,95.92
2022-09-12T01:51:02.181Z,96.02
2022-09-12T01:52:02.191Z,96.12
2022-09-12T01:53:02.151Z,96.12
2022-09-12T01:54:02.141Z,96.23
2022-09-12T01:55:03.744Z,96.12
2022-09-12T01:56:02.112Z,96.23
2022-09-12T01:57:02.121Z,96.33
2022-09-12T01:58:02.113Z,96.43
2022-09-12T01:59:02.082Z,96.43
2022-09-12T02:00:02.074Z,96.33
2022-09-12T02:01:02.073Z,96.33
2022-09-12T02:02:02.088Z,96.43
2022-09-12T02:03:02.044Z,96.53
2022-09-12T02:04:02.024Z,96.43
2022-09-12T02:05:02.044Z,96.43
2022-09-12T02:06:02.025Z,96.33
2022-09-12T02:07:01.997Z,96.23
2022-09-12T02:08:02.004Z,96.33
2022-09-12T02:09:01.986Z,96.43
2022-09-12T02:10:01.977Z,96.33
2022-09-12T02:11:01.955Z,96.33
2022-09-12T02:12:01.956Z,96.43
2022-09-12T02:13:01.932Z,96.43
2022-09-12T02:14:01.925Z,96.33
2022-09-12T02:15:01.935Z,96.23
2022-09-12T02:16:01.896Z,96.23
2022-09-12T02:17:01.885Z,96.23
2022-09-12T02:18:01.910Z,96.33
2022-09-12T02:19:01.886Z,96.33
2022-09-12T02:20:01.878Z,96.37
2022-09-12T02:21:01.858Z,96.33
2022-09-12T02:22:01.908Z,96.37
2022-09-12T02:23:01.838Z,96.27
2022-09-12T02:24:01.817Z,96.27
2022-09-12T02:25:01.805Z,96.37
2022-09-12T02:26:01.798Z,96.37
2022-09-12T02:27:01.798Z,96.47
2022-09-12T02:28:01.779Z,96.47
2022-09-12T02:29:01.768Z,96.68
2022-09-12T02:30:01.748Z,96.68
2022-09-12T02:31:01.813Z,96.68
2022-09-12T02:32:01.751Z,96.68
2022-09-12T02:33:01.768Z,96.68
2022-09-12T02:34:01.829Z,96.68
2022-09-12T02:35:01.701Z,96.68
2022-09-12T02:36:01.690Z,96.98
2022-09-12T02:37:01.680Z,97.08
2022-09-12T02:38:01.684Z,97.19
2022-09-12T02:39:01.651Z,97.39
2022-09-12T02:40:01.685Z,97.49
2022-09-12T02:41:01.641Z,97.69
2022-09-12T02:42:01.633Z,97.80
2022-09-12T02:43:01.620Z,97.80
2022-09-12T02:44:01.612Z,97.80
2022-09-12T02:45:01.613Z,97.80
2022-09-12T02:46:01.710Z,97.80
2022-09-12T02:47:01.572Z,97.84
2022-09-12T02:48:01.561Z,97.80
2022-09-12T02:49:01.573Z,97.74
2022-09-12T02:50:01.536Z,97.84
2022-09-12T02:51:01.536Z,97.74
2022-09-12T02:52:01.552Z,97.74
2022-09-12T02:53:01.603Z,97.74
2022-09-12T02:54:01.503Z,97.84
2022-09-12T02:55:01.496Z,97.84
2022-09-12T02:56:01.473Z,97.84
2022-09-12T02:57:01.475Z,97.84
2022-09-12T02:58:01.454Z,97.94
2022-09-12T02:59:01.454Z,98.05
2022-09-12T03:00:01.424Z,98.05
2022-09-12T03:01:01.505Z,97.94
2022-09-12T03:02:01.431Z,97.94
2022-09-12T03:03:01.421Z,97.94
2022-09-12T03:04:01.387Z,97.94
2022-09-12T03:05:01.375Z,97.94
2022-09-12T03:06:01.385Z,97.94
2022-09-12T03:07:01.356Z,98.05
2022-09-12T03:08:01.335Z,98.05
2022-09-12T03:09:01.367Z,98.05
2022-09-12T03:10:01.324Z,98.05
2022-09-12T03:11:01.316Z,98.14
2022-09-12T03:12:01.326Z,98.14
2022-09-12T03:13:01.297Z,98.14
2022-09-12T03:14:01.277Z,98.25
2022-09-12T03:15:01.276Z,98.25
2022-09-12T03:16:01.259Z,98.25
2022-09-12T03:17:01.247Z,98.25
2022-09-12T03:18:01.238Z,98.14
2022-09-12T03:19:01.228Z,98.30
2022-09-12T03:20:01.228Z,98.30
2022-09-12T03:21:01.209Z,98.30
2022-09-12T03:22:01.208Z,98.39
2022-09-12T03:23:01.186Z,98.39
2022-09-12T03:24:01.170Z,98.39
2022-09-12T03:25:01.181Z,98.50
2022-09-12T03:26:01.150Z,98.50
2022-09-12T03:27:01.173Z,98.60
2022-09-12T03:28:01.129Z,98.39
2022-09-12T03:29:01.121Z,98.39
2022-09-12T03:30:01.131Z,98.39
2022-09-12T03:31:01.131Z,98.39
2022-09-12T03:32:01.101Z,98.30
2022-09-12T03:33:01.080Z,98.19
2022-09-12T03:34:01.079Z,98.30
2022-09-12T03:35:01.060Z,98.30
2022-09-12T03:36:01.042Z,98.30
2022-09-12T03:37:01.056Z,98.39
2022-09-12T03:38:01.022Z,98.50
2022-09-12T03:39:01.031Z,98.50
2022-09-12T03:40:01.044Z,98.60
2022-09-12T03:41:00.991Z,98.60
2022-09-12T03:42:00.984Z,98.70
2022-09-12T03:43:00.973Z,98.70
2022-09-12T03:44:00.963Z,98.60
2022-09-12T03:45:00.966Z,98.60
2022-09-12T03:46:01.015Z,98.60
2022-09-12T03:47:00.954Z,98.60
2022-09-12T03:48:00.914Z,98.60
2022-09-12T03:49:00.904Z,98.60
2022-09-12T03:50:00.924Z,98.50
2022-09-12T03:51:00.884Z,98.54
2022-09-12T03:52:00.882Z,98.34
2022-09-12T03:53:00.882Z,98.34
2022-09-12T03:54:00.855Z,98.24
2022-09-12T03:55:00.837Z,98.14
2022-09-12T03:56:00.845Z,98.14
2022-09-12T03:57:00.892Z,98.03
2022-09-12T03:58:00.796Z,98.03
2022-09-12T03:59:00.796Z,98.03
2022-09-12T04:00:00.785Z,98.03
2022-09-12T04:01:00.815Z,98.03
2022-09-12T04:02:00.795Z,97.93
2022-09-12T04:03:00.746Z,97.83
2022-09-12T04:04:00.736Z,97.83
2022-09-12T04:05:00.730Z,97.83
2022-09-12T04:06:00.718Z,97.93
2022-09-12T04:07:00.720Z,97.93
2022-09-12T04:08:00.696Z,98.03
2022-09-12T04:09:00.709Z,98.14
2022-09-12T04:10:00.706Z,98.24
2022-09-12T04:11:00.660Z,98.34
2022-09-12T04:12:00.667Z,98.44
2022-09-12T04:13:00.660Z,98.54
2022-09-12T04:14:00.659Z,98.54
2022-09-12T04:15:00.631Z,98.65
2022-09-12T04:16:00.610Z,98.75
2022-09-12T04:17:00.602Z,98.75
2022-09-12T04:18:05.605Z,98.75
2022-09-12T04:19:01.588Z,98.75
2022-09-12T04:20:00.589Z,98.75
2022-09-12T04:21:00.562Z,98.75
2022-09-12T04:22:00.559Z,98.79
2022-09-12T04:23:00.559Z,98.79
2022-09-12T04:24:00.521Z,98.69
2022-09-12T04:25:00.511Z,98.69
2022-09-12T04:26:00.520Z,98.69
2022-09-12T04:27:03.737Z,98.90
2022-09-12T04:28:01.492Z,98.90
2022-09-12T04:29:00.472Z,98.90
2022-09-12T04:30:01.212Z,98.90
2022-09-12T04:31:00.525Z,99.00
2022-09-12T04:32:00.443Z,99.10
2022-09-12T04:33:02.234Z,99.10
2022-09-12T04:34:00.413Z,99.30
2022-09-12T04:35:00.411Z,99.41
2022-09-12T04:36:00.392Z,99.51
2022-09-12T04:37:00.410Z,99.51
2022-09-12T04:38:00.373Z,99.61
2022-09-12T04:39:00.394Z,99.61
2022-09-12T04:40:00.445Z,99.61
2022-09-12T04:41:00.352Z,99.51
2022-09-12T04:42:00.337Z,99.41
2022-09-12T04:43:00.352Z,99.41
2022-09-12T04:44:00.324Z,99.41
2022-09-12T04:45:00.314Z,99.41
2022-09-12T04:46:00.327Z,99.41
2022-09-12T04:47:00.384Z,99.41
2022-09-12T04:48:00.265Z,99.41
2022-09-12T04:49:00.255Z,99.41
2022-09-12T04:50:00.259Z,99.41
2022-09-12T04:51:00.235Z,99.41
2022-09-12T04:52:00.225Z,99.41
2022-09-12T04:53:00.243Z,99.51
2022-09-12T04:54:00.207Z,99.51
2022-09-12T04:55:00.207Z,99.51
2022-09-12T04:56:00.196Z,99.51
2022-09-12T04:57:00.167Z,99.51
2022-09-12T04:58:00.156Z,99.55
2022-09-12T04:59:00.166Z,99.51
2022-09-12T05:00:03.844Z,99.61
2022-09-12T05:01:01.159Z,99.71
2022-09-12T05:02:00.141Z,99.71
2022-09-12T05:03:00.108Z,99.81
2022-09-12T05:04:00.126Z,99.91
2022-09-12T05:05:00.136Z,99.91
2022-09-12T05:06:00.108Z,99.91
2022-09-12T05:07:00.087Z,99.91
2022-09-12T05:08:00.069Z,99.91
2022-09-12T05:09:00.078Z,99.91
2022-09-12T05:10:00.032Z,99.81
2022-09-12T05:11:00.028Z,99.71
2022-09-12T05:12:04.539Z,99.61
2022-09-12T05:13:00.991Z,99.61
2022-09-12T05:13:59.989Z,99.51
2022-09-12T05:15:00.010Z,99.51
2022-09-12T05:15:59.999Z,99.51
2022-09-12T05:17:00.060Z,99.61
2022-09-12T05:17:59.975Z,99.61
2022-09-12T05:18:59.931Z,99.51
2022-09-12T05:20:00.022Z,99.51
2022-09-12T05:20:59.922Z,99.61
2022-09-12T05:21:59.919Z,99.61
2022-09-12T05:22:59.943Z,99.71
2022-09-12T05:23:59.921Z,99.81
2022-09-12T05:24:59.890Z,99.81
2022-09-12T05:25:59.860Z,99.91
2022-09-12T05:26:59.841Z,99.99
2022-09-12T05:27:59.831Z,99.99
2022-09-12T05:28:59.832Z,99.99
2022-09-12T05:29:59.881Z,99.99
2022-09-12T05:30:59.835Z,99.99
2022-09-12T05:31:59.793Z,99.99
2022-09-12T05:32:59.790Z,99.99
2022-09-12T05:33:59.804Z,99.99
2022-09-12T05:34:59.772Z,99.99
2022-09-12T05:35:59.743Z,99.99
2022-09-12T05:36:59.742Z,99.99
2022-09-12T05:37:59.803Z,99.99
2022-09-12T05:38:59.718Z,99.99
2022-09-12T05:39:59.750Z,99.99
2022-09-12T05:40:59.717Z,99.99
2022-09-12T05:41:59.733Z,99.99
2022-09-12T05:42:59.685Z,99.99
2022-09-12T05:43:59.674Z,99.99
2022-09-12T05:44:59.675Z,99.99
2022-09-12T05:45:59.669Z,99.99
2022-09-12T05:46:59.635Z,99.99
2022-09-12T05:47:59.615Z,99.99
2022-09-12T05:48:59.635Z,99.99
2022-09-12T05:49:59.615Z,99.99
2022-09-12T05:50:59.596Z,99.99
2022-09-12T05:51:59.616Z,99.99
2022-09-12T05:52:59.653Z,99.99
2022-09-12T05:53:59.555Z,99.99
2022-09-12T05:54:59.574Z,99.99
2022-09-12T05:55:59.564Z,99.99
2022-09-12T05:56:59.524Z,99.99
2022-09-12T05:57:59.528Z,99.99
2022-09-12T05:58:59.516Z,99.99
2022-09-12T05:59:59.530Z,99.99
2022-09-12T06:00:59.516Z,99.99
2022-09-12T06:01:59.531Z,99.99
2022-09-12T06:02:59.458Z,99.99
2022-09-12T06:03:59.448Z,99.99
2022-09-12T06:04:59.438Z,99.99
2022-09-12T06:05:59.478Z,99.99
2022-09-12T06:06:59.439Z,99.99
2022-09-12T06:07:59.447Z,99.99
2022-09-12T06:08:59.445Z,99.99
2022-09-12T06:09:59.378Z,99.99
2022-09-12T06:11:02.272Z,99.99
2022-09-12T06:11:59.369Z,99.99
2022-09-12T06:12:59.370Z,99.99
2022-09-12T06:13:59.349Z,99.99
2022-09-12T06:14:59.330Z,99.99
2022-09-12T06:15:59.351Z,99.99
2022-09-12T06:16:59.360Z,99.99
2022-09-12T06:17:59.292Z,99.99
2022-09-12T06:18:59.303Z,99.99
2022-09-12T06:19:59.270Z,99.99
2022-09-12T06:20:59.317Z,99.99
2022-09-12T06:21:59.303Z,99.99
2022-09-12T06:22:59.270Z,99.99
2022-09-12T06:23:59.258Z,99.99
2022-09-12T06:24:59.259Z,99.99
2022-09-12T06:25:59.671Z,99.99
2022-09-12T06:26:59.221Z,99.99
2022-09-12T06:27:59.241Z,99.99
2022-09-12T06:28:59.172Z,99.99
2022-09-12T06:29:59.173Z,99.99
2022-09-12T06:30:59.174Z,99.99
2022-09-12T06:31:59.181Z,99.99
2022-09-12T06:32:59.140Z,99.99
2022-09-12T06:33:59.123Z,99.99
2022-09-12T06:34:59.133Z,99.99
2022-09-12T06:35:59.104Z,99.99
2022-09-12T06:36:59.094Z,99.99
2022-09-12T06:37:59.084Z,99.99
2022-09-12T06:38:59.094Z,99.93
2022-09-12T06:39:59.174Z,99.83
2022-09-12T06:40:59.052Z,99.83
2022-09-12T06:41:59.065Z,99.83
2022-09-12T06:42:59.023Z,99.73
2022-09-12T06:44:00.056Z,99.63
2022-09-12T06:44:59.004Z,99.52
2022-09-12T06:45:59.010Z,99.42
2022-09-12T06:46:59.005Z,99.32
2022-09-12T06:47:59.076Z,99.22
2022-09-12T06:48:58.996Z,99.07
2022-09-12T06:49:59.005Z,99.07
2022-09-12T06:50:58.937Z,98.97
2022-09-12T06:51:58.924Z,98.86
2022-09-12T06:52:58.936Z,98.86
2022-09-12T06:53:58.907Z,98.77
2022-09-12T06:54:58.957Z,98.56
2022-09-12T06:55:58.895Z,98.36
2022-09-12T06:56:58.889Z,98.26
2022-09-12T06:57:58.865Z,98.11
2022-09-12T06:58:58.868Z,98.01
2022-09-12T06:59:58.861Z,97.80
2022-09-12T07:00:59.183Z,97.71
2022-09-12T07:01:58.951Z,97.60
2022-09-12T07:02:58.842Z,97.60
2022-09-12T07:03:58.808Z,97.60
2022-09-12T07:04:58.807Z,97.50
2022-09-12T07:05:58.830Z,97.50
2022-09-12T07:06:58.788Z,97.40
2022-09-12T07:07:58.779Z,97.20
2022-09-12T07:08:58.739Z,96.99
2022-09-12T07:09:58.741Z,96.75
2022-09-12T07:10:58.755Z,96.54
2022-09-12T07:11:58.720Z,96.54
2022-09-12T07:12:58.751Z,96.54
2022-09-12T07:13:58.700Z,96.54
2022-09-12T07:14:58.679Z,96.64
2022-09-12T07:15:58.687Z,96.64
2022-09-12T07:16:59.408Z,96.64
2022-09-12T07:17:58.670Z,96.64
2022-09-12T07:18:58.670Z,96.84
2022-09-12T07:19:58.633Z,96.64
2022-09-12T07:20:58.632Z,96.64
2022-09-12T07:21:58.919Z,96.39
2022-09-12T07:22:58.612Z,96.50
2022-09-12T07:23:58.613Z,96.50
2022-09-12T07:24:58.591Z,96.39
2022-09-12T07:25:58.572Z,96.30
2022-09-12T07:26:58.584Z,96.19
2022-09-12T07:27:58.543Z,96.30
2022-09-12T07:29:18.610Z,96.19
2022-09-12T07:29:59.588Z,96.15
2022-09-12T07:30:58.540Z,96.04
2022-09-12T07:31:58.512Z,95.84
2022-09-12T07:32:58.485Z,95.74
2022-09-12T07:33:58.491Z,95.43
2022-09-12T07:34:58.465Z,95.34
2022-09-12T07:35:58.543Z,95.13
2022-09-12T07:36:58.444Z,95.09
2022-09-12T07:37:58.474Z,94.89
2022-09-12T07:38:58.445Z,94.68
2022-09-12T07:39:58.533Z,94.58
2022-09-12T07:40:58.407Z,94.58
2022-09-12T07:41:58.396Z,94.23
2022-09-12T07:42:58.366Z,94.13
2022-09-12T07:43:58.366Z,93.83
2022-09-12T07:44:58.415Z,93.62
2022-09-12T07:45:58.396Z,93.22
2022-09-12T07:46:58.335Z,93.12
2022-09-12T07:47:58.328Z,93.02
2022-09-12T07:48:58.341Z,92.91
2022-09-12T07:49:58.352Z,92.82
2022-09-12T07:50:58.288Z,92.77
2022-09-12T07:51:58.283Z,92.67
2022-09-12T07:52:58.267Z,92.57
2022-09-12T07:53:58.300Z,92.47
2022-09-12T07:54:58.248Z,92.36
2022-09-12T07:55:58.319Z,92.36
2022-09-12T07:56:58.227Z,92.57
2022-09-12T07:57:58.209Z,92.57
2022-09-12T07:58:58.243Z,92.57
2022-09-12T07:59:58.198Z,92.57
2022-09-12T08:00:58.180Z,92.42
2022-09-12T08:01:58.173Z,92.52
2022-09-12T08:02:58.157Z,92.63
2022-09-12T08:03:58.152Z,92.52
2022-09-12T08:04:58.159Z,92.42
2022-09-12T08:05:58.139Z,92.22
2022-09-12T08:06:58.111Z,92.22
2022-09-12T08:07:58.123Z,92.12
2022-09-12T08:08:58.115Z,91.16
2022-09-12T08:09:58.115Z,91.06
2022-09-12T08:10:58.145Z,91.16
2022-09-12T08:11:58.061Z,91.16
2022-09-12T08:12:58.043Z,91.16
2022-09-12T08:13:58.199Z,91.27
2022-09-12T08:15:05.123Z,91.27
2022-09-12T08:15:58.081Z,91.02
2022-09-12T08:16:58.041Z,90.92
2022-09-12T08:17:58.020Z,90.41
2022-09-12T08:18:57.988Z,90.41
2022-09-12T08:19:58.534Z,90.21
2022-09-12T08:20:57.961Z,89.97
2022-09-12T08:21:57.995Z,89.46
2022-09-12T08:22:57.935Z,89.16
2022-09-12T08:23:58.004Z,88.65
2022-09-12T08:24:57.924Z,88.10
2022-09-12T08:25:57.934Z,88.21
2022-09-12T08:26:57.894Z,88.31
2022-09-12T08:27:57.884Z,88.47
2022-09-12T08:28:57.894Z,88.47
2022-09-12T08:29:57.868Z,88.47
2022-09-12T08:30:57.883Z,88.47
2022-09-12T08:31:57.865Z,88.57
2022-09-12T08:32:57.826Z,88.47
2022-09-12T08:33:57.827Z,88.17
2022-09-12T08:34:57.804Z,87.41
2022-09-12T08:35:57.863Z,87.62
2022-09-12T08:36:57.826Z,87.21
2022-09-12T08:37:57.788Z,86.71
2022-09-12T08:38:59.877Z,86.81
2022-09-12T08:39:57.798Z,86.71
2022-09-12T08:40:57.740Z,86.61
2022-09-12T08:41:57.792Z,86.61
2022-09-12T08:42:57.719Z,86.51
2022-09-12T08:43:57.728Z,86.41
2022-09-12T08:44:57.688Z,86.36
2022-09-12T08:45:57.734Z,86.36
2022-09-12T08:46:57.702Z,85.96
2022-09-12T08:47:57.683Z,85.96
2022-09-12T08:48:57.657Z,85.66
2022-09-12T08:49:57.647Z,85.56
2022-09-12T08:50:57.640Z,85.46
2022-09-12T08:51:57.682Z,85.25
2022-09-12T08:52:57.641Z,84.45
2022-09-12T08:53:57.612Z,83.20
2022-09-12T08:54:57.622Z,83.50
2022-09-12T08:55:57.591Z,83.00
2022-09-12T08:56:57.602Z,82.86
2022-09-12T08:57:57.562Z,82.05
2022-09-12T08:58:57.563Z,81.95
2022-09-12T08:59:57.554Z,81.95
2022-09-12T09:00:57.523Z,81.95
2022-09-12T09:01:57.622Z,81.95
2022-09-12T09:02:57.546Z,81.45
2022-09-12T09:03:57.547Z,81.45
2022-09-12T09:04:57.493Z,81.10
2022-09-12T09:05:57.474Z,81.21
2022-09-12T09:06:57.464Z,80.70
2022-09-12T09:07:57.465Z,80.70
2022-09-12T09:08:57.454Z,80.20
2022-09-12T09:09:57.424Z,79.60
2022-09-12T09:10:57.414Z,79.56
2022-09-12T09:11:57.435Z,79.25
2022-09-12T09:12:57.412Z,79.56
2022-09-12T09:13:59.220Z,78.85
2022-09-12T09:14:57.385Z,79.25
2022-09-12T09:15:57.410Z,79.56
2022-09-12T09:16:57.346Z,79.56
2022-09-12T09:17:57.374Z,79.36
2022-09-12T09:18:57.347Z,79.05
2022-09-12T09:19:57.349Z,77.81
2022-09-12T09:20:57.339Z,77.20
2022-09-12T09:21:57.297Z,76.20
2022-09-12T09:22:57.310Z,75.49
2022-09-12T09:23:57.330Z,75.66
2022-09-12T09:24:57.276Z,75.66
2022-09-12T09:25:57.247Z,75.46
2022-09-12T09:26:57.247Z,75.05
2022-09-12T09:27:57.258Z,75.35
2022-09-12T09:28:57.258Z,75.52
2022-09-12T09:29:57.214Z,75.82
2022-09-12T09:30:57.244Z,75.42
2022-09-12T09:31:57.190Z,75.02
2022-09-12T09:32:57.182Z,74.32
2022-09-12T09:33:57.250Z,74.18
2022-09-12T09:34:57.170Z,74.28
2022-09-12T09:35:57.194Z,73.58
2022-09-12T09:36:57.130Z,73.78
2022-09-12T09:37:58.810Z,73.74
2022-09-12T09:38:57.102Z,73.94
2022-09-12T09:39:57.127Z,73.74
2022-09-12T09:40:57.122Z,73.14
2022-09-12T09:41:57.103Z,73.24
2022-09-12T09:42:57.072Z,73.21
2022-09-12T09:43:57.109Z,73.10
2022-09-12T09:44:57.073Z,73.41
2022-09-12T09:45:57.069Z,73.71
2022-09-12T09:46:57.025Z,74.31
2022-09-12T09:47:57.029Z,74.37
2022-09-12T09:48:57.021Z,73.87
2022-09-12T09:49:57.014Z,73.17
2022-09-12T09:50:56.982Z,72.37
2022-09-12T09:51:58.851Z,72.27
2022-09-12T09:52:56.962Z,72.24
2022-09-12T09:53:56.955Z,71.93
2022-09-12T09:54:56.945Z,71.53
2022-09-12T09:55:56.936Z,71.33
2022-09-12T09:56:56.926Z,71.03
2022-09-12T09:57:56.926Z,70.93
2022-09-12T09:58:56.906Z,70.29
2022-09-12T09:59:56.899Z,70.39
2022-09-12T10:00:56.895Z,70.59
2022-09-12T10:01:56.941Z,70.59
2022-09-12T10:02:56.905Z,69.49
2022-09-12T10:03:56.857Z,68.69
2022-09-12T10:04:56.848Z,68.35
2022-09-12T10:05:56.860Z,68.55
2022-09-12T10:06:56.842Z,68.46
2022-09-12T10:07:56.818Z,69.16
2022-09-12T10:08:56.818Z,68.92
2022-09-12T10:09:56.800Z,68.02
2022-09-12T10:10:56.790Z,67.12
2022-09-12T10:11:56.800Z,67.19
2022-09-12T10:12:56.750Z,67.19
2022-09-12T10:13:56.764Z,67.89
2022-09-12T10:14:56.731Z,68.19
2022-09-12T10:15:56.766Z,67.69
2022-09-12T10:16:56.708Z,67.05
2022-09-12T10:17:56.731Z,67.05
2022-09-12T10:18:56.690Z,66.55
2022-09-12T10:20:17.424Z,67.16
2022-09-12T10:20:57.692Z,66.46
2022-09-12T10:21:56.653Z,65.55
2022-09-12T10:22:56.670Z,65.33
2022-09-12T10:23:56.684Z,65.42
2022-09-12T10:24:56.624Z,65.92
2022-09-12T10:25:56.694Z,66.52
2022-09-12T10:26:57.166Z,65.83
2022-09-12T10:27:56.709Z,65.49
2022-09-12T10:28:56.608Z,65.49
2022-09-12T10:29:56.555Z,64.99
2022-09-12T10:30:56.593Z,63.39
2022-09-12T10:31:56.545Z,63.29
2022-09-12T10:32:56.556Z,60.96
2022-09-12T10:33:56.515Z,59.27
2022-09-12T10:34:56.626Z,59.06
2022-09-12T10:35:56.535Z,58.86
2022-09-12T10:36:56.505Z,58.17
2022-09-12T10:37:56.496Z,58.44
2022-09-12T10:38:56.457Z,57.44
2022-09-12T10:39:56.518Z,56.54
2022-09-12T10:40:56.468Z,56.24
2022-09-12T10:41:56.427Z,57.04
2022-09-12T10:42:56.409Z,58.14
2022-09-12T10:43:56.465Z,59.53
2022-09-12T10:44:56.429Z,60.33
2022-09-12T10:45:56.467Z,59.81
2022-09-12T10:46:56.457Z,58.81
2022-09-12T10:47:56.360Z,57.91
2022-09-12T10:48:56.351Z,57.48
2022-09-12T10:49:56.371Z,56.79
2022-09-12T10:50:56.331Z,56.09
2022-09-12T10:51:56.352Z,54.59
2022-09-12T10:52:56.332Z,53.89
2022-09-12T10:53:56.346Z,54.27
2022-09-12T10:54:56.282Z,54.27
2022-09-12T10:55:56.281Z,52.87
2022-09-12T10:56:56.263Z,53.27
2022-09-12T10:57:56.262Z,53.47
2022-09-12T10:58:56.263Z,53.66
2022-09-12T10:59:56.234Z,54.34
2022-09-12T11:00:56.222Z,55.63
2022-09-12T11:01:56.255Z,55.91
2022-09-12T11:02:56.215Z,53.41
2022-09-12T11:03:56.195Z,54.21
2022-09-12T11:04:56.183Z,54.81
2022-09-12T11:05:56.202Z,55.01
2022-09-12T11:06:56.166Z,55.51
2022-09-12T11:07:56.286Z,54.91
2022-09-12T11:08:56.137Z,55.38
2022-09-12T11:09:56.127Z,54.19
2022-09-12T11:10:56.138Z,53.49
2022-09-12T11:11:56.131Z,51.57
2022-09-12T11:12:56.108Z,51.17
2022-09-12T11:13:56.087Z,51.27
2022-09-12T11:14:56.078Z,52.07
2022-09-12T11:15:56.134Z,52.76
2022-09-12T11:16:56.078Z,51.95
2022-09-12T11:17:56.071Z,50.45
2022-09-12T11:18:56.098Z,49.93
2022-09-12T11:19:56.019Z,50.43
2022-09-12T11:20:56.011Z,50.52
2022-09-12T11:21:56.000Z,51.12
2022-09-12T11:22:56.010Z,50.93
2022-09-12T11:23:55.984Z,50.93
2022-09-12T11:24:56.007Z,48.04
2022-09-12T11:25:55.964Z,47.34
2022-09-12T11:26:56.036Z,47.84
2022-09-12T11:27:55.941Z,49.31
2022-09-12T11:28:55.942Z,49.61
2022-09-12T11:29:55.945Z,49.41
2022-09-12T11:30:55.956Z,49.29
2022-09-12T11:31:55.894Z,49.08
2022-09-12T11:32:55.884Z,48.29
2022-09-12T11:33:56.942Z,47.89
2022-09-12T11:34:55.878Z,48.10
2022-09-12T11:35:55.866Z,48.39
2022-09-12T11:36:55.855Z,47.80
2022-09-12T11:37:55.834Z,46.98
2022-09-12T11:38:55.856Z,47.17
2022-09-12T11:39:56.189Z,47.97
2022-09-12T11:40:55.857Z,46.28
2022-09-12T11:41:55.787Z,46.36
2022-09-12T11:42:55.787Z,45.27
2022-09-12T11:43:55.786Z,45.17
2022-09-12T11:44:55.759Z,45.07
2022-09-12T11:45:55.789Z,45.86
2022-09-12T11:46:55.748Z,45.54
2022-09-12T11:47:55.711Z,45.25
2022-09-12T11:48:55.723Z,43.64
2022-09-12T11:49:55.720Z,42.25
2022-09-12T11:50:55.710Z,42.25
2022-09-12T11:51:55.680Z,41.93
2022-09-12T11:52:55.682Z,42.23
2022-09-12T11:53:56.366Z,43.60
2022-09-12T11:54:55.693Z,43.49
2022-09-12T11:55:55.687Z,43.40
2022-09-12T11:56:55.637Z,44.46
2022-09-12T11:57:55.612Z,42.19
2022-09-12T11:58:55.629Z,42.29
2022-09-12T11:59:55.582Z,42.66
2022-09-12T12:00:55.624Z,43.16
2022-09-12T12:01:55.604Z,42.35
2022-09-12T12:02:55.555Z,42.32
2022-09-12T12:03:55.598Z,41.04
2022-09-12T12:04:55.535Z,41.22
2022-09-12T12:05:55.538Z,41.30
2022-09-12T12:06:55.524Z,41.08
2022-09-12T12:07:55.505Z,40.96
2022-09-12T12:08:55.517Z,38.93
2022-09-12T12:09:55.477Z,38.58
2022-09-12T12:10:55.501Z,36.05
2022-09-12T12:11:55.478Z,34.41
2022-09-12T12:12:55.462Z,32.70
2022-09-12T12:13:55.478Z,32.34
2022-09-12T12:14:55.429Z,30.80
2022-09-12T12:15:55.522Z,29.16
2022-09-12T12:16:55.409Z,28.34
2022-09-12T12:17:55.401Z,27.51
2022-09-12T12:18:55.422Z,27.86
2022-09-12T12:19:55.383Z,25.79
2022-09-12T12:20:55.374Z,26.34
2022-09-12T12:21:55.382Z,25.13
2022-09-12T12:22:55.379Z,24.52
2022-09-12T12:23:55.360Z,23.14
2022-09-12T12:24:55.335Z,22.83
2022-09-12T12:25:55.331Z,22.98
2022-09-12T12:26:55.305Z,21.97
2022-09-12T12:27:55.295Z,21.84
2022-09-12T12:28:55.298Z,20.76
2022-09-12T12:29:55.286Z,20.36
2022-09-12T12:30:55.339Z,20.14
2022-09-12T12:31:55.275Z,19.47
2022-09-12T12:32:55.267Z,19.65
2022-09-12T12:33:55.248Z,19.64
2022-09-12T12:34:55.228Z,19.06
2022-09-12T12:35:55.249Z,19.05
2022-09-12T12:36:55.238Z,19.13
2022-09-12T12:37:55.217Z,19.03
2022-09-12T12:38:55.205Z,19.49
2022-09-12T12:39:55.239Z,19.40
2022-09-12T12:40:55.208Z,19.11
2022-09-12T12:41:55.270Z,18.81
2022-09-12T12:42:55.161Z,17.88
2022-09-12T12:43:55.164Z,18.46
2022-09-12T12:44:55.168Z,18.55
2022-09-12T12:45:55.187Z,19.11
2022-09-12T12:46:55.154Z,18.62
2022-09-12T12:47:55.131Z,18.62
2022-09-12T12:48:55.120Z,18.41
2022-09-12T12:49:55.113Z,18.79
2022-09-12T12:50:55.095Z,18.50
2022-09-12T12:51:55.094Z,17.84